Main page
METAR-TAF:

METAR-TAF

Airports :

Stockholm Arlanda Airport

Stockholm-Arlanda, Sweden

latitude: 59-39N, longitude: 017-57E, elevation: 38 m

Current weather observation

The report was made 34 minutes ago, at 04:20 UTC
Wind 4 kt from the North/Northwest
Temperature 0°C
Humidity 93%
Pressure 1034 hPa
Visibility 10 km or more
Overcast at a height of 1800 ft

METAR: ESSA 210420Z 34004KT 9999 OVC018 00/M01 Q1034 R01L/09//95 R08/09//95 R01R/09//95 NOSIG

Time: 05:54 (04:54 UTC)

Forecast

The report was made 5 hours and 24 minutes ago, at 23:30 UTC
Forecast valid from 21 at 00 UTC to 21 at 24 UTC
Wind 6 kt from the North/Northeast
Visibility 10 km or more
Broken clouds at a height of 1600 ft
Temporary
from 21 at 00 UTC to 21 at 12 UTC
Broken clouds at a height of 1200 ft

TAF: ESSA 202330Z 2100/2124 02006KT 9999 BKN016 TEMPO 2100/2112 BKN012

Weather observations and forecasts of more than 4000 airports (METAR and TAF reports).

The available stations are represented by yellow and red dots on the map.

Hover mouse over dot to see the name of the station.

Then click to see weather observations and forecasts.

To change the map : click on the green buttons with a black cross to zoom in, on the green button with a dash to zoom out, or on the green arrows for adjacent maps.


METAR-TAF: